createdAt,value
2017-07-18T00:01:37.554Z,5.63
2017-07-18T00:04:05.714Z,5.90
2017-07-18T00:06:33.878Z,5.97
2017-07-18T00:09:02.063Z,5.37
2017-07-18T00:11:30.233Z,6.20
2017-07-18T00:13:58.601Z,8.27
2017-07-18T00:16:26.783Z,7.03
2017-07-18T00:18:54.946Z,6.00
2017-07-18T00:21:23.103Z,5.00
2017-07-18T00:23:51.299Z,6.77
2017-07-18T00:26:19.466Z,9.73
2017-07-18T00:28:47.755Z,7.10
2017-07-18T00:31:15.892Z,7.97
2017-07-18T00:33:44.055Z,11.90
2017-07-18T00:36:13.041Z,7.27
2017-07-18T00:38:41.204Z,7.07
2017-07-18T00:41:09.376Z,6.67
2017-07-18T00:43:37.559Z,8.33
2017-07-18T00:46:05.712Z,7.53
2017-07-18T00:48:34.650Z,7.60
2017-07-18T00:51:02.855Z,9.00
2017-07-18T00:53:31.039Z,7.30
2017-07-18T00:55:59.196Z,6.80
2017-07-18T00:58:27.351Z,8.37
2017-07-18T01:00:55.542Z,9.50
2017-07-18T01:03:23.697Z,6.80
2017-07-18T01:05:51.866Z,7.30
2017-07-18T01:08:20.054Z,9.03
2017-07-18T01:10:48.203Z,9.93
2017-07-18T01:13:16.357Z,6.30
2017-07-18T01:15:44.539Z,6.37
2017-07-18T01:18:13.461Z,6.60
2017-07-18T01:20:41.632Z,7.40
2017-07-18T01:23:09.852Z,7.20
2017-07-18T01:25:38.012Z,5.87
2017-07-18T01:28:06.176Z,7.77
2017-07-18T01:30:34.370Z,7.50
2017-07-18T01:33:02.522Z,6.40
2017-07-18T01:35:30.673Z,6.67
2017-07-18T01:37:58.861Z,6.10
2017-07-18T01:40:27.045Z,10.00
2017-07-18T01:42:55.200Z,6.90
2017-07-18T01:45:23.386Z,5.70
2017-07-18T01:47:51.649Z,8.00
2017-07-18T01:50:19.826Z,7.47
2017-07-18T01:52:48.002Z,7.87
2017-07-18T01:55:16.172Z,7.70
2017-07-18T01:57:44.330Z,9.20
2017-07-18T02:00:12.615Z,9.70
2017-07-18T02:02:40.804Z,6.50
2017-07-18T02:05:09.056Z,9.20
2017-07-18T02:07:37.272Z,6.73
2017-07-18T02:10:05.619Z,6.90
2017-07-18T02:12:33.811Z,10.00
2017-07-18T02:15:02.132Z,6.13
2017-07-18T02:17:31.079Z,6.90
2017-07-18T02:19:59.226Z,7.50
2017-07-18T02:22:27.402Z,11.57
2017-07-18T02:24:55.551Z,5.40
2017-07-18T02:27:23.707Z,7.47
2017-07-18T02:29:52.645Z,6.10
2017-07-18T02:32:20.811Z,7.20
2017-07-18T02:34:48.990Z,9.13
2017-07-18T02:37:17.145Z,6.87
2017-07-18T02:39:45.293Z,6.00
2017-07-18T02:42:14.246Z,7.30
2017-07-18T02:44:42.510Z,7.70
2017-07-18T02:47:10.681Z,6.50
2017-07-18T02:49:38.830Z,7.37
2017-07-18T02:52:06.969Z,6.40
2017-07-18T02:54:35.899Z,6.90
2017-07-18T02:57:04.196Z,8.63
2017-07-18T02:59:32.319Z,6.70
2017-07-18T03:02:00.508Z,7.07
2017-07-18T03:04:28.646Z,9.40
2017-07-18T03:06:56.865Z,10.70
2017-07-18T03:09:25.006Z,6.53
2017-07-18T03:11:53.925Z,8.20
2017-07-18T03:14:22.118Z,7.73
2017-07-18T03:16:50.286Z,9.80
2017-07-18T03:19:18.425Z,7.70
2017-07-18T03:21:46.579Z,8.50
2017-07-18T03:24:33.294Z,13.33
2017-07-18T03:27:02.250Z,10.07
2017-07-18T03:29:30.404Z,9.57
2017-07-18T03:31:58.562Z,9.60
2017-07-18T03:34:26.759Z,13.27
2017-07-18T03:36:54.908Z,10.47
2017-07-18T03:39:23.091Z,12.60
2017-07-18T03:41:51.265Z,10.80
2017-07-18T03:44:19.424Z,9.67
2017-07-18T03:46:47.641Z,11.87
2017-07-18T03:49:15.792Z,9.07
2017-07-18T03:51:43.942Z,8.17
2017-07-18T03:54:12.126Z,10.27
2017-07-18T03:56:40.278Z,8.40
2017-07-18T03:59:09.192Z,10.30
2017-07-18T04:01:37.390Z,9.50
2017-07-18T04:04:05.547Z,11.30
2017-07-18T04:06:33.810Z,8.60
2017-07-18T04:09:02.147Z,8.73
2017-07-18T04:11:31.059Z,8.63
2017-07-18T04:13:59.233Z,9.20
2017-07-18T04:16:27.406Z,10.33
2017-07-18T04:18:55.567Z,8.73
2017-07-18T04:21:24.513Z,9.60
2017-07-18T04:23:52.663Z,9.03
2017-07-18T04:26:20.819Z,8.07
2017-07-18T04:28:48.991Z,10.00
2017-07-18T04:31:17.206Z,9.17
2017-07-18T04:33:45.362Z,9.43
2017-07-18T04:36:13.546Z,9.50
2017-07-18T04:38:41.817Z,13.43
2017-07-18T04:41:09.977Z,8.70
2017-07-18T04:43:38.156Z,10.70
2017-07-18T04:46:06.300Z,11.97
2017-07-18T04:48:34.491Z,8.83
2017-07-18T04:51:02.635Z,8.57
2017-07-18T04:53:31.582Z,10.60
2017-07-18T04:55:59.754Z,9.67
2017-07-18T04:58:27.943Z,9.00
2017-07-18T05:00:56.106Z,8.43
2017-07-18T05:03:24.290Z,12.13
2017-07-18T05:05:52.471Z,8.53
2017-07-18T05:08:20.654Z,8.20
2017-07-18T05:10:49.568Z,9.47
2017-07-18T05:13:17.744Z,8.43
2017-07-18T05:15:45.926Z,9.43
2017-07-18T05:18:14.278Z,14.33
2017-07-18T05:20:43.259Z,9.50
2017-07-18T05:23:12.195Z,8.07
2017-07-18T05:25:40.393Z,8.80
2017-07-18T05:28:08.549Z,9.20
2017-07-18T05:30:36.708Z,10.93
2017-07-18T05:33:04.900Z,11.00
2017-07-18T05:35:33.039Z,11.10
2017-07-18T05:38:01.199Z,8.57
2017-07-18T05:40:30.146Z,9.30
2017-07-18T05:42:58.334Z,6.47
2017-07-18T05:45:26.489Z,6.77
2017-07-18T05:47:54.648Z,12.03
2017-07-18T05:50:22.831Z,6.57
2017-07-18T05:52:50.974Z,7.30
2017-07-18T05:55:19.140Z,6.93
2017-07-18T05:57:48.080Z,9.07
2017-07-18T06:00:16.310Z,8.43
2017-07-18T06:02:44.455Z,11.10
2017-07-18T06:05:13.430Z,9.03
2017-07-18T06:07:41.601Z,7.63
2017-07-18T06:10:09.759Z,8.97
2017-07-18T06:12:37.942Z,8.30
2017-07-18T06:15:06.112Z,14.17
2017-07-18T06:17:34.273Z,9.70
2017-07-18T06:20:02.468Z,9.43
2017-07-18T06:22:30.608Z,10.00
2017-07-18T06:24:58.765Z,9.37
2017-07-18T06:27:26.956Z,14.27
2017-07-18T06:29:55.199Z,9.17
2017-07-18T06:32:24.390Z,7.60
2017-07-18T06:34:52.593Z,9.77
2017-07-18T06:37:20.725Z,6.83
2017-07-18T06:39:50.418Z,9.77
2017-07-18T06:42:18.613Z,8.70
2017-07-18T06:44:47.528Z,9.70
2017-07-18T06:47:15.684Z,7.63
2017-07-18T06:49:43.987Z,9.03
2017-07-18T06:52:12.142Z,7.93
2017-07-18T06:54:40.417Z,7.40
2017-07-18T06:57:08.626Z,6.80
2017-07-18T06:59:36.797Z,7.50
2017-07-18T07:02:04.960Z,8.10
2017-07-18T07:04:33.144Z,9.17
2017-07-18T07:07:01.303Z,12.10
2017-07-18T07:09:29.433Z,8.67
2017-07-18T07:11:58.525Z,7.90
2017-07-18T07:14:27.412Z,6.77
2017-07-18T07:16:56.353Z,9.87
2017-07-18T07:19:24.527Z,9.23
2017-07-18T07:21:52.689Z,9.53
2017-07-18T07:24:20.963Z,9.27
2017-07-18T07:26:49.117Z,10.90
2017-07-18T07:29:17.281Z,7.30
2017-07-18T07:31:46.221Z,7.83
2017-07-18T07:34:14.455Z,7.50
2017-07-18T07:36:42.623Z,11.83
2017-07-18T07:39:11.554Z,9.53
2017-07-18T07:41:39.747Z,8.73
2017-07-18T07:44:07.949Z,10.23
2017-07-18T07:46:36.097Z,8.83
2017-07-18T07:49:04.266Z,8.53
2017-07-18T07:51:32.488Z,16.83
2017-07-18T07:54:01.414Z,9.20
2017-07-18T07:56:29.552Z,14.00
2017-07-18T07:58:58.129Z,9.70
2017-07-18T08:01:27.063Z,10.93
2017-07-18T08:03:55.217Z,8.83
2017-07-18T08:06:23.396Z,9.40
2017-07-18T08:08:51.636Z,10.30
2017-07-18T08:11:20.589Z,7.60
2017-07-18T08:13:48.761Z,8.60
2017-07-18T08:16:16.922Z,13.03
2017-07-18T08:18:45.133Z,8.47
2017-07-18T08:21:13.281Z,8.70
2017-07-18T08:23:41.447Z,9.30
2017-07-18T08:26:09.653Z,9.80
2017-07-18T08:28:37.819Z,10.83
2017-07-18T08:31:05.956Z,12.20
2017-07-18T08:33:34.137Z,11.50
2017-07-18T08:36:02.310Z,11.13
2017-07-18T08:38:30.518Z,14.10
2017-07-18T08:40:59.458Z,9.40
2017-07-18T08:43:27.614Z,14.53
2017-07-18T08:45:55.822Z,14.67
2017-07-18T08:48:23.978Z,8.50
2017-07-18T08:50:52.129Z,11.47
2017-07-18T08:53:20.336Z,12.63
2017-07-18T08:55:48.506Z,13.37
2017-07-18T08:58:16.655Z,12.07
2017-07-18T09:00:44.849Z,9.03
2017-07-18T09:03:13.016Z,8.83
2017-07-18T09:05:41.183Z,9.80
2017-07-18T09:08:09.380Z,11.30
2017-07-18T09:10:37.537Z,11.30
2017-07-18T09:13:05.687Z,8.70
2017-07-18T09:15:33.871Z,10.87
2017-07-18T09:18:02.016Z,12.03
2017-07-18T09:20:30.210Z,9.80
2017-07-18T09:22:58.419Z,15.20
2017-07-18T09:25:26.575Z,11.43
2017-07-18T09:27:54.744Z,12.50
2017-07-18T09:30:22.926Z,10.10
2017-07-18T09:32:51.079Z,9.63
2017-07-18T09:35:19.214Z,8.57
2017-07-18T09:37:48.172Z,11.33
2017-07-18T09:40:16.361Z,8.83
2017-07-18T09:42:44.549Z,10.90
2017-07-18T09:45:13.557Z,10.27
2017-07-18T09:47:42.484Z,8.37
2017-07-18T09:50:10.630Z,11.63
2017-07-18T09:52:39.990Z,10.13
2017-07-18T09:55:08.121Z,10.80
2017-07-18T09:57:36.475Z,11.30
2017-07-18T10:00:05.500Z,10.70
2017-07-18T10:02:33.637Z,11.07
2017-07-18T10:05:01.850Z,11.27
2017-07-18T10:07:30.033Z,11.93
2017-07-18T10:09:58.198Z,18.70
2017-07-18T10:12:26.349Z,10.30
2017-07-18T10:14:54.545Z,10.10
2017-07-18T10:17:22.758Z,9.63
2017-07-18T10:19:51.694Z,9.77
2017-07-18T10:22:20.011Z,11.50
2017-07-18T10:24:48.156Z,12.00
2017-07-18T10:27:16.521Z,10.97
2017-07-18T10:29:44.733Z,11.13
2017-07-18T10:32:12.977Z,10.63
2017-07-18T10:34:41.172Z,9.43
2017-07-18T10:37:09.364Z,9.97
2017-07-18T10:39:37.625Z,11.10
2017-07-18T10:42:05.898Z,8.13
2017-07-18T10:44:34.073Z,8.97
2017-07-18T10:47:02.226Z,10.17
2017-07-18T10:49:30.574Z,9.80
2017-07-18T10:51:58.776Z,12.90
2017-07-18T10:54:26.945Z,14.17
2017-07-18T10:56:55.976Z,16.60
2017-07-18T10:59:24.120Z,11.47
2017-07-18T11:01:52.260Z,14.00
2017-07-18T11:04:20.462Z,9.63
2017-07-18T11:06:48.648Z,11.13
2017-07-18T11:09:16.814Z,11.37
2017-07-18T11:11:44.985Z,9.70
2017-07-18T11:14:13.136Z,18.03
2017-07-18T11:16:41.325Z,14.20
2017-07-18T11:19:09.497Z,13.57
2017-07-18T11:21:37.654Z,10.27
2017-07-18T11:24:05.859Z,8.40
2017-07-18T11:26:34.030Z,11.83
2017-07-18T11:29:02.204Z,10.40
2017-07-18T11:31:30.398Z,13.77
2017-07-18T11:33:58.580Z,10.77
2017-07-18T11:36:26.758Z,10.87
2017-07-18T11:38:55.701Z,8.50
2017-07-18T11:41:23.906Z,16.43
2017-07-18T11:43:52.089Z,8.90
2017-07-18T11:46:20.245Z,20.87
2017-07-18T11:48:48.405Z,11.93
2017-07-18T11:51:16.634Z,9.77
2017-07-18T11:53:45.592Z,8.10
2017-07-18T11:56:13.716Z,9.30
2017-07-18T11:58:41.930Z,10.20
2017-07-18T12:01:10.103Z,11.50
2017-07-18T12:03:38.289Z,10.33
2017-07-18T12:06:06.489Z,8.03
2017-07-18T12:08:35.400Z,8.63
2017-07-18T12:11:03.591Z,10.00
2017-07-18T12:13:31.753Z,11.03
2017-07-18T12:16:00.084Z,8.53
2017-07-18T12:18:46.837Z,8.70
2017-07-18T12:21:15.047Z,10.57
2017-07-18T12:23:43.208Z,8.60
2017-07-18T12:26:11.363Z,9.87
2017-07-18T12:28:39.574Z,11.47
2017-07-18T12:31:07.746Z,16.47
2017-07-18T12:33:35.918Z,8.43
2017-07-18T12:36:04.064Z,11.40
2017-07-18T12:38:32.229Z,9.60
2017-07-18T12:41:00.407Z,11.33
2017-07-18T12:43:28.572Z,12.40
2017-07-18T12:45:56.785Z,10.67
2017-07-18T12:48:24.937Z,9.83
2017-07-18T12:50:53.126Z,7.67
2017-07-18T12:53:21.496Z,11.60
2017-07-18T12:55:49.673Z,9.90
2017-07-18T12:58:17.935Z,8.70
2017-07-18T13:00:46.260Z,7.10
2017-07-18T13:03:15.186Z,7.87
2017-07-18T13:05:43.321Z,7.47
2017-07-18T13:08:11.610Z,8.30
2017-07-18T13:10:39.833Z,12.93
2017-07-18T13:13:08.116Z,11.80
2017-07-18T13:15:36.362Z,15.20
2017-07-18T13:18:04.506Z,7.93
2017-07-18T13:20:32.680Z,8.10
2017-07-18T13:23:00.877Z,7.90
2017-07-18T13:25:29.045Z,9.90
2017-07-18T13:27:57.202Z,8.07
2017-07-18T13:30:25.377Z,8.00
2017-07-18T13:32:53.526Z,7.10
2017-07-18T13:35:22.493Z,13.60
2017-07-18T13:37:50.686Z,9.50
2017-07-18T13:40:18.842Z,11.53
2017-07-18T13:42:47.029Z,10.13
2017-07-18T13:45:15.993Z,12.20
2017-07-18T13:47:44.198Z,8.63
2017-07-18T13:50:12.358Z,10.80
2017-07-18T13:52:40.503Z,10.13
2017-07-18T13:55:08.692Z,9.80
2017-07-18T13:57:36.858Z,8.13
2017-07-18T14:00:05.026Z,11.30
2017-07-18T14:02:33.216Z,9.97
2017-07-18T14:05:01.384Z,8.70
2017-07-18T14:07:29.563Z,12.20
2017-07-18T14:09:57.773Z,9.57
2017-07-18T14:12:26.703Z,8.57
2017-07-18T14:14:54.904Z,24.00
2017-07-18T14:17:23.130Z,10.27
2017-07-18T14:19:51.309Z,10.40
2017-07-18T14:22:19.464Z,9.13
2017-07-18T14:24:47.638Z,11.27
2017-07-18T14:27:15.817Z,11.03
2017-07-18T14:29:44.007Z,8.37
2017-07-18T14:32:12.187Z,12.10
2017-07-18T14:34:40.350Z,11.90
2017-07-18T14:37:08.576Z,12.07
2017-07-18T14:39:36.725Z,8.00
2017-07-18T14:42:04.917Z,11.73
2017-07-18T14:44:33.105Z,11.90
2017-07-18T14:47:02.033Z,9.27
2017-07-18T14:49:30.193Z,6.90
2017-07-18T14:51:58.405Z,13.33
2017-07-18T14:54:26.561Z,7.93
2017-07-18T14:56:54.685Z,8.90
2017-07-18T14:59:23.658Z,7.40
2017-07-18T15:01:51.897Z,10.47
2017-07-18T15:04:20.083Z,9.60
2017-07-18T15:06:48.298Z,9.33
2017-07-18T15:09:17.249Z,11.03
2017-07-18T15:11:45.404Z,9.20
2017-07-18T15:14:13.684Z,9.70
2017-07-18T15:16:41.838Z,9.60
2017-07-18T15:19:10.000Z,9.23
2017-07-18T15:21:38.171Z,8.33
2017-07-18T15:24:06.391Z,8.83
2017-07-18T15:26:34.605Z,9.83
2017-07-18T15:29:03.530Z,8.20
2017-07-18T15:31:31.688Z,17.53
2017-07-18T15:33:59.863Z,9.27
2017-07-18T15:36:28.028Z,9.27
2017-07-18T15:38:56.237Z,26.27
2017-07-18T15:41:24.406Z,10.50
2017-07-18T15:43:52.637Z,10.17
2017-07-18T15:46:21.551Z,9.70
2017-07-18T15:48:49.706Z,8.63
2017-07-18T15:51:18.645Z,9.10
2017-07-18T15:53:46.809Z,8.00
2017-07-18T15:56:15.014Z,8.00
2017-07-18T15:58:43.221Z,7.33
2017-07-18T16:01:11.419Z,13.13
2017-07-18T16:03:39.630Z,10.17
2017-07-18T16:06:07.785Z,13.00
2017-07-18T16:08:36.006Z,13.63
2017-07-18T16:11:04.942Z,8.63
2017-07-18T16:13:33.242Z,10.50
2017-07-18T16:16:01.493Z,8.70
2017-07-18T16:18:29.636Z,10.30
2017-07-18T16:20:57.845Z,7.67
2017-07-18T16:23:26.025Z,9.23
2017-07-18T16:25:54.233Z,8.27
2017-07-18T16:28:23.274Z,10.40
2017-07-18T16:30:51.422Z,14.53
2017-07-18T16:33:19.602Z,9.30
2017-07-18T16:35:47.802Z,9.60
2017-07-18T16:38:15.949Z,12.83
2017-07-18T16:40:44.153Z,8.67
2017-07-18T16:43:12.310Z,7.73
2017-07-18T16:45:40.481Z,11.67
2017-07-18T16:48:08.685Z,8.60
2017-07-18T16:50:36.835Z,7.13
2017-07-18T16:53:05.001Z,9.30
2017-07-18T16:55:33.174Z,9.00
2017-07-18T16:58:01.333Z,9.17
2017-07-18T17:00:29.518Z,9.47
2017-07-18T17:02:57.737Z,11.00
2017-07-18T17:05:25.917Z,10.00
2017-07-18T17:07:54.070Z,8.93
2017-07-18T17:10:22.266Z,10.07
2017-07-18T17:12:50.444Z,10.40
2017-07-18T17:15:19.362Z,8.40
2017-07-18T17:17:47.572Z,11.47
2017-07-18T17:20:15.737Z,10.13
2017-07-18T17:22:43.905Z,11.10
2017-07-18T17:25:12.949Z,12.57
2017-07-18T17:27:41.889Z,8.33
2017-07-18T17:30:10.038Z,10.27
2017-07-18T17:32:38.234Z,10.30
2017-07-18T17:35:06.441Z,8.73
2017-07-18T17:37:34.603Z,9.60
2017-07-18T17:40:02.755Z,11.73
2017-07-18T17:42:30.951Z,12.53
2017-07-18T17:44:59.273Z,8.80
2017-07-18T17:47:27.426Z,9.50
2017-07-18T17:49:56.422Z,11.37
2017-07-18T17:52:25.361Z,11.70
2017-07-18T17:54:53.505Z,10.30
2017-07-18T17:57:21.713Z,12.90
2017-07-18T17:59:49.892Z,16.53
2017-07-18T18:02:18.064Z,8.33
2017-07-18T18:04:46.261Z,13.83
2017-07-18T18:07:14.454Z,9.77
2017-07-18T18:09:43.440Z,8.30
2017-07-18T18:12:11.593Z,8.07
2017-07-18T18:14:39.766Z,10.87
2017-07-18T18:17:07.979Z,10.20
2017-07-18T18:19:36.932Z,11.13
2017-07-18T18:22:05.164Z,9.73
2017-07-18T18:24:33.333Z,13.53
2017-07-18T18:27:01.499Z,14.03
2017-07-18T18:29:29.870Z,16.43
2017-07-18T18:31:58.797Z,7.50
2017-07-18T18:34:26.991Z,11.50
2017-07-18T18:36:55.204Z,8.27
2017-07-18T18:39:23.370Z,7.80
2017-07-18T18:41:51.533Z,8.63
2017-07-18T18:44:20.509Z,8.90
2017-07-18T18:46:48.655Z,10.10
2017-07-18T18:49:16.867Z,16.43
2017-07-18T18:51:45.862Z,9.30
2017-07-18T18:54:14.809Z,7.83
2017-07-18T18:56:42.993Z,8.40
2017-07-18T18:59:11.193Z,9.80
2017-07-18T19:01:39.490Z,7.00
2017-07-18T19:04:08.416Z,12.53
2017-07-18T19:06:36.613Z,11.80
2017-07-18T19:09:04.767Z,13.07
2017-07-18T19:11:33.046Z,13.30
2017-07-18T19:14:01.195Z,29.00
2017-07-18T19:16:29.422Z,21.43
2017-07-18T19:18:57.588Z,16.03
2017-07-18T19:21:25.781Z,21.00
2017-07-18T19:23:53.964Z,15.80
2017-07-18T19:26:22.985Z,14.30
2017-07-18T19:28:51.133Z,13.13
2017-07-18T19:31:20.097Z,15.13
2017-07-18T19:33:48.273Z,13.60
2017-07-18T19:36:16.490Z,13.10
2017-07-18T19:38:45.540Z,18.43
2017-07-18T19:41:13.688Z,9.70
2017-07-18T19:43:41.799Z,10.50
2017-07-18T19:46:10.757Z,13.67
2017-07-18T19:48:38.947Z,14.93
2017-07-18T19:51:07.064Z,10.80
2017-07-18T19:53:35.302Z,11.07
2017-07-18T19:56:04.282Z,12.70
2017-07-18T19:58:32.518Z,12.73
2017-07-18T20:01:00.662Z,30.53
2017-07-18T20:03:29.636Z,50.53
2017-07-18T20:05:57.781Z,41.97
2017-07-18T20:08:25.979Z,30.77
2017-07-18T20:10:54.269Z,22.87
2017-07-18T20:13:23.281Z,18.00
2017-07-18T20:15:51.476Z,41.00
2017-07-18T20:18:19.648Z,35.17
2017-07-18T20:20:47.898Z,34.23
2017-07-18T20:23:16.054Z,24.20
2017-07-18T20:25:44.969Z,14.93
2017-07-18T20:28:13.198Z,15.30
2017-07-18T20:30:41.365Z,16.03
2017-07-18T20:33:09.541Z,17.60
2017-07-18T20:35:37.744Z,13.40
2017-07-18T20:38:06.693Z,13.33
2017-07-18T20:40:34.869Z,28.57
2017-07-18T20:43:03.066Z,19.97
2017-07-18T20:45:31.263Z,23.40
2017-07-18T20:48:00.184Z,12.20
2017-07-18T20:50:28.386Z,16.60
2017-07-18T20:52:56.605Z,21.13
2017-07-18T20:55:25.553Z,17.97
2017-07-18T20:57:53.737Z,19.60
2017-07-18T21:00:21.909Z,11.63
2017-07-18T21:02:50.103Z,16.03
2017-07-18T21:05:19.101Z,17.90
2017-07-18T21:07:48.038Z,21.60
2017-07-18T21:10:16.217Z,15.10
2017-07-18T21:12:44.421Z,20.40
2017-07-18T21:15:12.573Z,14.53
2017-07-18T21:17:40.873Z,13.50
2017-07-18T21:20:09.882Z,16.37
2017-07-18T21:22:38.967Z,19.00
2017-07-18T21:25:07.910Z,14.67
2017-07-18T21:27:36.081Z,11.47
2017-07-18T21:30:04.270Z,14.20
2017-07-18T21:32:32.442Z,11.77
2017-07-18T21:35:00.668Z,12.50
2017-07-18T21:37:28.793Z,24.53
2017-07-18T21:39:57.202Z,15.10
2017-07-18T21:42:26.160Z,9.63
2017-07-18T21:44:54.339Z,13.20
2017-07-18T21:47:22.474Z,17.93
2017-07-18T21:49:50.616Z,17.77
2017-07-18T21:52:19.625Z,16.17
2017-07-18T21:54:47.823Z,24.30
2017-07-18T21:57:15.994Z,10.17
2017-07-18T21:59:44.182Z,10.60
2017-07-18T22:02:12.355Z,13.47
2017-07-18T22:04:40.578Z,15.07
2017-07-18T22:07:09.533Z,11.17
2017-07-18T22:09:37.709Z,17.80
2017-07-18T22:12:05.926Z,27.37
2017-07-18T22:14:34.095Z,24.23
2017-07-18T22:17:02.370Z,11.67
2017-07-18T22:19:30.534Z,12.67
2017-07-18T22:21:59.476Z,14.83
2017-07-18T22:24:27.683Z,12.50
2017-07-18T22:26:55.857Z,11.27
2017-07-18T22:29:24.857Z,18.33
2017-07-18T22:31:53.121Z,13.80
2017-07-18T22:34:21.358Z,16.97
2017-07-18T22:36:49.579Z,14.03
2017-07-18T22:39:17.735Z,13.57
2017-07-18T22:41:45.916Z,14.30
2017-07-18T22:44:14.086Z,11.73
2017-07-18T22:46:42.329Z,11.53
2017-07-18T22:49:10.488Z,13.83
2017-07-18T22:51:38.640Z,26.00
2017-07-18T22:54:06.891Z,16.10
2017-07-18T22:56:35.057Z,20.30
2017-07-18T22:59:03.211Z,11.67
2017-07-18T23:01:31.384Z,15.60
2017-07-18T23:03:59.566Z,16.27
2017-07-18T23:06:27.762Z,17.23
2017-07-18T23:08:56.705Z,15.40
2017-07-18T23:11:24.876Z,30.03
2017-07-18T23:13:53.090Z,13.93
2017-07-18T23:16:22.058Z,16.30
2017-07-18T23:18:50.259Z,18.33
2017-07-18T23:21:18.432Z,13.33
2017-07-18T23:23:46.597Z,19.83
2017-07-18T23:26:14.790Z,15.83
2017-07-18T23:28:42.953Z,15.77
2017-07-18T23:31:11.923Z,16.30
2017-07-18T23:33:40.070Z,12.20
2017-07-18T23:36:08.317Z,16.20
2017-07-18T23:38:36.453Z,17.10
2017-07-18T23:41:04.633Z,12.33
2017-07-18T23:43:32.838Z,17.53
2017-07-18T23:46:00.981Z,18.37
2017-07-18T23:48:29.952Z,15.37
2017-07-18T23:50:58.161Z,12.97
2017-07-18T23:53:27.103Z,21.67
2017-07-18T23:55:55.269Z,13.67
2017-07-18T23:58:23.458Z,18.10
